Time;durP1;ratioP1;P1;durP2;ratioP2;P2;SDS_P1;SDS_P2;PMS_P1;PMS_P2;Temp;Humidity;BMP_temperature;BMP_pressure;BME280_temperature;BME280_humidity;BME280_pressure;Samples;Min_cycle;Max_cycle;Signal;HPM_P1;HPM_P2
2021/08/29 00:02:18;;;;;;;11.18;6.55;;;23.30;62.50;;;;;;6166996;28;80637;-64
2021/08/29 00:05:19;;;;;;;10.02;6.78;;;23.30;62.40;;;;;;6174386;28;80798;-63
2021/08/29 00:08:19;;;;;;;11.77;6.88;;;23.30;62.40;;;;;;6161693;28;80227;-63
2021/08/29 00:11:20;;;;;;;13.98;7.15;;;23.30;62.50;;;;;;6165605;28;80969;-63
2021/08/29 00:14:20;;;;;;;10.95;7.00;;;23.30;62.40;;;;;;6165808;28;81110;-63
2021/08/29 00:17:21;;;;;;;10.20;6.72;;;23.20;62.10;;;;;;6161601;28;80340;-63
2021/08/29 00:20:21;;;;;;;11.52;7.30;;;23.30;62.20;;;;;;6157549;28;80546;-63
2021/08/29 00:23:22;;;;;;;11.05;7.20;;;23.20;62.20;;;;;;6166049;28;81449;-63
2021/08/29 00:26:24;;;;;;;10.57;6.80;;;23.20;62.20;;;;;;6175931;28;80253;-63
2021/08/29 00:29:24;;;;;;;9.30;6.28;;;23.20;62.30;;;;;;6173609;28;80538;-63
2021/08/29 00:32:25;;;;;;;11.68;6.70;;;23.20;62.20;;;;;;6170165;28;81477;-63
2021/08/29 00:35:25;;;;;;;11.40;7.03;;;23.20;62.30;;;;;;6153424;28;82953;-63
2021/08/29 00:38:26;;;;;;;11.85;6.90;;;23.20;62.20;;;;;;6160163;28;80514;-63
2021/08/29 00:41:26;;;;;;;12.73;6.70;;;23.20;62.20;;;;;;6164880;28;81043;-63
2021/08/29 00:44:27;;;;;;;10.18;6.35;;;23.20;62.20;;;;;;6175474;28;80330;-63
2021/08/29 00:47:28;;;;;;;11.82;7.07;;;23.20;62.20;;;;;;6169777;28;80973;-63
2021/08/29 00:50:28;;;;;;;11.77;7.07;;;23.20;62.20;;;;;;6168507;28;81934;-64
2021/08/29 00:53:32;;;;;;;11.88;6.97;;;23.20;62.30;;;;;;6169222;28;80887;-64
2021/08/29 00:56:33;;;;;;;10.98;6.68;;;23.20;62.30;;;;;;6161750;28;87631;-63
2021/08/29 00:59:34;;;;;;;10.88;6.70;;;23.20;62.20;;;;;;6186769;28;82813;-64
2021/08/29 01:02:35;;;;;;;9.63;6.40;;;23.20;62.30;;;;;;6196505;28;83365;-64
2021/08/29 01:05:35;;;;;;;12.55;7.22;;;23.20;62.10;;;;;;6167292;28;80478;-63
2021/08/29 01:09:02;;;;;;;;;;;23.20;62.20;;;;;;6154797;28;81711;-64
2021/08/29 01:12:03;;;;;;;11.00;7.22;;;23.20;62.10;;;;;;6166194;28;83538;-63
2021/08/29 01:15:32;;;;;;;11.85;6.68;;;23.20;62.10;;;;;;6146282;28;80402;-63
2021/08/29 01:18:33;;;;;;;14.23;6.60;;;23.20;61.90;;;;;;6172234;28;80769;-63
2021/08/29 01:21:34;;;;;;;10.63;7.00;;;23.20;61.80;;;;;;6148407;28;83453;-63
2021/08/29 01:24:36;;;;;;;9.80;6.82;;;23.20;61.80;;;;;;6164065;28;81465;-64
2021/08/29 01:27:36;;;;;;;12.68;6.90;;;23.20;61.80;;;;;;6173161;28;80570;-63
2021/08/29 01:30:37;;;;;;;12.00;7.30;;;23.20;61.70;;;;;;6169321;28;83000;-63
2021/08/29 01:33:37;;;;;;;12.52;7.03;;;23.20;61.70;;;;;;6153848;28;82163;-64
2021/08/29 01:36:44;;;;;;;12.63;7.00;;;23.20;61.60;;;;;;6157442;28;88608;-63
2021/08/29 01:39:51;;;;;;;9.75;6.68;;;23.20;61.50;;;;;;6173202;28;83116;-63
2021/08/29 01:43:04;;;;;;;12.63;6.95;;;23.20;61.60;;;;;;6162254;28;81154;-63
2021/08/29 01:46:06;;;;;;;9.63;6.03;;;23.10;61.40;;;;;;6172585;28;81610;-63
2021/08/29 01:49:07;;;;;;;9.13;6.10;;;23.10;61.20;;;;;;6158481;28;81532;-64
2021/08/29 01:52:08;;;;;;;8.52;5.75;;;23.20;61.40;;;;;;6165133;28;83049;-64
2021/08/29 01:55:23;;;;;;;12.32;6.55;;;23.20;61.40;;;;;;6161052;28;82083;-64
2021/08/29 01:58:35;;;;;;;10.98;6.20;;;23.20;61.20;;;;;;6161917;28;83675;-63
2021/08/29 02:01:36;;;;;;;9.60;6.35;;;23.20;61.00;;;;;;6157931;28;82731;-64
2021/08/29 02:04:39;;;;;;;10.27;6.18;;;23.10;61.10;;;;;;6183218;28;83283;-63
2021/08/29 02:07:39;;;;;;;10.65;6.50;;;23.20;61.20;;;;;;6141770;28;83721;-64
2021/08/29 02:11:02;;;;;;;9.07;5.93;;;23.10;61.00;;;;;;6161647;28;82491;-63
2021/08/29 02:14:03;;;;;;;9.20;6.10;;;23.10;61.00;;;;;;6152309;28;82492;-62
2021/08/29 02:17:05;;;;;;;8.95;5.75;;;23.20;61.00;;;;;;6161809;28;83220;-63
2021/08/29 02:20:08;;;;;;;8.32;5.90;;;23.10;61.00;;;;;;6158475;28;81561;-63
2021/08/29 02:23:08;;;;;;;9.63;6.28;;;23.20;60.90;;;;;;6154920;28;83119;-63
2021/08/29 02:26:09;;;;;;;10.63;6.47;;;23.10;60.60;;;;;;6159429;28;81712;-63
2021/08/29 02:29:11;;;;;;;8.10;5.70;;;23.10;60.50;;;;;;6161381;28;80393;-63
2021/08/29 02:32:13;;;;;;;9.88;5.65;;;23.20;60.60;;;;;;6159608;28;80766;-63
2021/08/29 02:35:14;;;;;;;8.75;5.65;;;23.10;60.40;;;;;;6162393;28;82912;-63
2021/08/29 02:38:20;;;;;;;8.63;6.00;;;23.10;60.40;;;;;;6162542;28;82311;-63
2021/08/29 02:41:23;;;;;;;10.45;6.57;;;23.10;60.30;;;;;;6157487;28;83364;-63
2021/08/29 02:44:25;;;;;;;11.43;6.45;;;23.10;60.40;;;;;;6162602;28;82957;-63
2021/08/29 02:47:25;;;;;;;10.85;6.43;;;23.10;60.30;;;;;;6158549;28;80386;-63
2021/08/29 02:50:27;;;;;;;9.88;6.07;;;23.10;60.40;;;;;;6160168;28;82914;-63
2021/08/29 02:53:27;;;;;;;9.25;6.40;;;23.10;60.30;;;;;;6161182;28;81113;-63
2021/08/29 02:56:28;;;;;;;7.90;6.00;;;23.10;60.10;;;;;;6161308;28;80874;-63
2021/08/29 02:59:28;;;;;;;8.45;5.75;;;23.10;60.00;;;;;;6198134;28;83022;-63
2021/08/29 03:02:29;;;;;;;9.63;5.32;;;23.10;60.10;;;;;;6160695;28;87234;-63
2021/08/29 03:05:30;;;;;;;9.50;6.32;;;23.10;60.10;;;;;;6163407;28;83398;-63
2021/08/29 03:08:30;;;;;;;8.52;5.38;;;23.10;60.20;;;;;;6167583;28;83199;-63
2021/08/29 03:11:31;;;;;;;7.85;5.80;;;23.10;59.90;;;;;;6171079;28;83619;-63
2021/08/29 03:14:33;;;;;;;10.23;5.93;;;23.10;60.00;;;;;;6163031;28;81005;-64
2021/08/29 03:17:33;;;;;;;7.50;5.15;;;23.10;60.00;;;;;;6164213;28;80409;-64
2021/08/29 03:20:37;;;;;;;7.18;5.07;;;23.10;60.00;;;;;;6160901;28;82231;-63
2021/08/29 03:23:38;;;;;;;8.75;5.78;;;23.10;59.90;;;;;;6148732;28;83369;-63
2021/08/29 03:26:38;;;;;;;6.75;5.25;;;23.10;59.80;;;;;;6159978;28;83386;-63
2021/08/29 03:30:00;;;;;;;7.30;4.78;;;23.10;59.80;;;;;;6164215;28;83079;-63
2021/08/29 03:33:00;;;;;;;8.07;5.45;;;23.10;59.80;;;;;;6163943;28;82122;-63
2021/08/29 03:36:07;;;;;;;8.45;5.20;;;23.10;59.80;;;;;;6152623;28;83336;-63
2021/08/29 03:39:10;;;;;;;8.75;5.78;;;23.10;59.70;;;;;;6163986;28;81815;-63
2021/08/29 03:42:11;;;;;;;7.35;5.05;;;23.10;59.70;;;;;;6168121;28;83180;-63
2021/08/29 03:45:12;;;;;;;11.13;5.68;;;23.10;59.70;;;;;;6158347;28;82538;-63
2021/08/29 03:48:12;;;;;;;6.93;4.90;;;23.10;59.80;;;;;;6168120;28;82072;-63
2021/08/29 03:51:13;;;;;;;7.22;5.35;;;23.10;59.60;;;;;;6168341;28;83246;-63
2021/08/29 03:54:14;;;;;;;7.20;5.40;;;23.10;59.60;;;;;;6159722;28;83412;-63
2021/08/29 03:57:14;;;;;;;9.93;5.28;;;23.10;59.50;;;;;;6164292;28;81301;-63
2021/08/29 04:00:15;;;;;;;7.15;4.80;;;23.00;59.40;;;;;;6170275;28;81962;-63
2021/08/29 04:03:38;;;;;;;7.95;4.95;;;23.10;59.20;;;;;;6165836;28;81283;-66
2021/08/29 04:06:50;;;;;;;7.30;4.97;;;23.10;59.20;;;;;;6157754;28;83412;-64
2021/08/29 04:09:53;;;;;;;6.90;4.85;;;23.10;59.10;;;;;;6160551;28;82116;-65
2021/08/29 04:12:53;;;;;;;6.68;4.68;;;23.00;59.10;;;;;;6165082;28;83528;-65
2021/08/29 04:16:17;;;;;;;7.47;5.28;;;23.10;59.10;;;;;;6159393;28;85848;-65
2021/08/29 04:19:21;;;;;;;8.02;4.82;;;23.10;59.10;;;;;;6162858;28;83115;-65
2021/08/29 04:22:22;;;;;;;14.00;5.28;;;23.00;59.10;;;;;;6155703;28;83152;-65
2021/08/29 04:25:22;;;;;;;8.30;5.18;;;23.00;58.90;;;;;;6160387;28;83822;-65
2021/08/29 04:28:23;;;;;;;7.57;4.45;;;23.10;58.90;;;;;;6167564;28;82406;-65
2021/08/29 04:31:25;;;;;;;7.45;4.85;;;23.10;59.00;;;;;;6171879;28;82203;-65
2021/08/29 04:34:30;;;;;;;7.07;5.07;;;23.10;58.90;;;;;;6142286;28;81490;-65
2021/08/29 04:37:39;;;;;;;6.30;4.47;;;23.10;59.00;;;;;;6163189;28;82477;-64
2021/08/29 04:40:45;;;;;;;;;;;23.00;58.80;;;;;;6154843;28;81656;-66
2021/08/29 04:43:46;;;;;;;6.35;4.78;;;23.00;58.80;;;;;;6175350;28;80312;-63
2021/08/29 04:46:46;;;;;;;6.78;4.60;;;23.10;59.20;;;;;;6158953;28;80110;-65
2021/08/29 04:49:47;;;;;;;7.28;4.57;;;23.00;59.00;;;;;;6157982;28;81772;-65
2021/08/29 04:52:54;;;;;;;7.60;4.95;;;23.00;59.10;;;;;;6154202;28;83366;-66
2021/08/29 04:55:55;;;;;;;8.93;4.57;;;23.10;59.10;;;;;;6196944;28;83270;-65
2021/08/29 04:58:56;;;;;;;6.97;4.95;;;23.00;59.10;;;;;;6200889;28;83247;-65
2021/08/29 05:01:56;;;;;;;9.25;4.97;;;23.10;58.80;;;;;;6174730;28;80902;-66
2021/08/29 05:04:59;;;;;;;8.07;4.82;;;23.10;58.70;;;;;;6165851;28;83617;-65
2021/08/29 05:08:00;;;;;;;7.78;5.20;;;23.00;58.90;;;;;;6153457;28;82878;-65
2021/08/29 05:11:00;;;;;;;10.05;5.38;;;23.10;58.60;;;;;;6172438;28;83387;-66
2021/08/29 05:14:01;;;;;;;6.53;4.82;;;23.10;58.80;;;;;;6158410;28;82265;-65
2021/08/29 05:17:01;;;;;;;8.52;5.63;;;23.00;59.30;;;;;;6159170;28;82041;-65
2021/08/29 05:20:06;;;;;;;9.32;5.18;;;23.10;59.40;;;;;;6166299;28;81561;-66
2021/08/29 05:23:42;;;;;;;7.28;5.10;;;23.00;59.70;;;;;;6111698;28;80697;-66
2021/08/29 05:27:03;;;;;;;8.52;5.63;;;23.10;59.60;;;;;;6162847;28;80399;-66
2021/08/29 05:30:04;;;;;;;9.93;5.75;;;23.10;61.00;;;;;;6169699;28;81495;-65
2021/08/29 05:33:04;;;;;;;8.85;5.45;;;23.20;59.90;;;;;;6154770;28;81307;-65
2021/08/29 05:36:05;;;;;;;10.27;5.35;;;23.10;60.10;;;;;;6171209;28;82535;-66
2021/08/29 05:39:05;;;;;;;7.55;5.15;;;23.10;60.00;;;;;;6157271;28;80051;-66
2021/08/29 05:42:07;;;;;;;9.52;5.50;;;23.20;59.90;;;;;;6159654;28;81646;-65
2021/08/29 05:45:14;;;;;;;8.60;5.43;;;23.10;60.20;;;;;;6162325;28;82705;-66
2021/08/29 05:48:15;;;;;;;8.05;6.03;;;23.20;60.10;;;;;;6162442;28;82366;-68
2021/08/29 05:51:15;;;;;;;13.55;6.13;;;23.10;60.10;;;;;;6158581;28;80442;-67
2021/08/29 05:54:17;;;;;;;8.43;5.53;;;23.10;60.10;;;;;;6168231;28;81561;-66
2021/08/29 05:57:18;;;;;;;8.45;5.75;;;23.20;60.00;;;;;;6166881;28;82705;-70
2021/08/29 06:00:19;;;;;;;11.68;6.55;;;23.20;60.00;;;;;;6158666;28;82793;-71
2021/08/29 06:03:22;;;;;;;10.80;5.68;;;23.10;60.30;;;;;;6157583;28;82698;-69
2021/08/29 06:06:23;;;;;;;10.77;6.40;;;23.20;60.00;;;;;;6154858;28;83541;-69
2021/08/29 06:09:25;;;;;;;10.57;6.72;;;23.20;60.00;;;;;;6155336;28;82757;-68
2021/08/29 06:12:27;;;;;;;9.65;6.30;;;23.20;59.70;;;;;;6158183;28;84184;-68
2021/08/29 06:15:28;;;;;;;8.43;5.82;;;23.20;59.60;;;;;;6158824;28;82499;-68
2021/08/29 06:18:28;;;;;;;12.30;6.80;;;23.20;59.60;;;;;;6169800;28;83447;-69
2021/08/29 06:21:29;;;;;;;13.90;7.25;;;23.20;59.50;;;;;;6156994;28;83499;-68
2021/08/29 06:24:30;;;;;;;10.40;5.78;;;23.20;59.60;;;;;;6163111;28;82334;-68
2021/08/29 06:27:53;;;;;;;11.48;6.20;;;23.20;59.70;;;;;;6159911;28;81172;-69
2021/08/29 06:31:17;;;;;;;13.45;7.75;;;23.10;59.60;;;;;;6159681;28;85077;-70
2021/08/29 06:34:43;;;;;;;10.65;6.88;;;23.20;59.50;;;;;;6154705;28;80439;-69
2021/08/29 06:37:53;;;;;;;14.02;7.10;;;23.20;59.30;;;;;;6190672;28;81829;-69
2021/08/29 06:40:53;;;;;;;16.42;7.20;;;23.20;59.30;;;;;;6178249;28;83675;-69
2021/08/29 06:43:54;;;;;;;14.80;7.60;;;23.30;59.20;;;;;;6162006;28;82468;-68
2021/08/29 06:47:27;;;;;;;10.80;6.75;;;23.20;59.10;;;;;;6151422;28;80376;-69
2021/08/29 06:50:46;;;;;;;12.10;7.50;;;23.20;59.40;;;;;;6158671;28;80631;-64
2021/08/29 06:54:14;;;;;;;11.45;7.40;;;23.20;59.20;;;;;;6138244;28;80780;-70
2021/08/29 06:57:33;;;;;;;12.50;6.68;;;23.20;59.10;;;;;;6159088;28;80611;-65
2021/08/29 07:00:33;;;;;;;11.52;6.65;;;23.30;58.80;;;;;;6158109;28;81547;-69
2021/08/29 07:03:36;;;;;;;11.95;6.68;;;23.30;58.90;;;;;;6192966;28;80767;-68
2021/08/29 07:06:37;;;;;;;12.30;7.10;;;23.20;59.00;;;;;;6206287;28;81591;-68
2021/08/29 07:09:56;;;;;;;11.77;6.18;;;23.20;59.20;;;;;;6162037;28;84964;-64
2021/08/29 07:12:56;;;;;;;13.00;7.10;;;23.30;59.10;;;;;;6193574;28;83012;-64
2021/08/29 07:16:04;;;;;;;13.23;6.88;;;23.30;58.80;;;;;;6197314;28;81791;-63
2021/08/29 07:19:04;;;;;;;10.30;6.50;;;23.30;58.50;;;;;;6162218;28;83121;-64
2021/08/29 07:22:23;;;;;;;15.45;6.20;;;23.30;58.60;;;;;;6158297;28;80478;-65
2021/08/29 07:25:42;;;;;;;9.20;6.13;;;23.30;58.60;;;;;;6161650;28;81344;-65
2021/08/29 07:29:05;;;;;;;9.90;6.10;;;23.20;58.90;;;;;;6171196;28;80969;-65
2021/08/29 07:32:08;;;;;;;11.35;6.22;;;23.20;59.00;;;;;;6166081;28;80999;-65
2021/08/29 07:35:09;;;;;;;10.38;6.63;;;23.20;59.30;;;;;;6174065;28;83555;-64
2021/08/29 07:38:09;;;;;;;16.52;7.25;;;23.20;58.90;;;;;;6159595;28;83229;-65
2021/08/29 07:41:12;;;;;;;12.13;7.35;;;23.20;59.00;;;;;;6162986;28;81380;-66
2021/08/29 07:44:13;;;;;;;12.02;6.22;;;23.20;59.30;;;;;;6155050;28;80642;-65
2021/08/29 07:47:13;;;;;;;10.38;6.28;;;23.30;59.30;;;;;;6159396;28;81994;-67
2021/08/29 07:50:14;;;;;;;11.20;6.70;;;23.20;59.10;;;;;;6160887;28;80697;-67
2021/08/29 07:53:14;;;;;;;13.50;7.43;;;23.20;59.20;;;;;;6156704;28;83658;-67
2021/08/29 07:56:15;;;;;;;11.30;6.38;;;23.20;59.20;;;;;;6165503;28;80486;-66
2021/08/29 07:59:20;;;;;;;13.15;7.07;;;23.20;59.20;;;;;;6148550;28;83419;-65
2021/08/29 08:02:20;;;;;;;12.32;7.22;;;23.30;59.30;;;;;;6160726;28;83254;-66
2021/08/29 08:05:39;;;;;;;13.18;6.85;;;23.30;59.30;;;;;;6158735;28;81712;-64
2021/08/29 08:09:06;;;;;;;10.95;6.85;;;23.30;59.20;;;;;;6156656;28;80482;-67
2021/08/29 08:12:42;;;;;;;17.50;7.32;;;23.20;59.30;;;;;;6109948;28;80404;-66
2021/08/29 08:15:42;;;;;;;17.30;7.28;;;23.30;59.30;;;;;;6155799;28;81603;-65
2021/08/29 08:18:43;;;;;;;12.27;6.63;;;23.30;59.70;;;;;;6169939;28;83515;-66
2021/08/29 08:21:44;;;;;;;11.45;6.68;;;23.30;59.50;;;;;;6151108;28;82624;-66
2021/08/29 08:24:44;;;;;;;13.02;6.75;;;23.30;59.40;;;;;;6175715;28;80514;-66
2021/08/29 08:28:17;;;;;;;17.70;7.10;;;23.30;59.80;;;;;;6136311;28;85454;-67
2021/08/29 08:31:44;;;;;;;11.73;6.78;;;23.30;59.70;;;;;;6150990;28;81275;-65
2021/08/29 08:35:03;;;;;;;12.77;6.20;;;23.30;59.60;;;;;;6164268;28;80134;-66
2021/08/29 08:38:24;;;;;;;11.60;7.20;;;23.30;59.60;;;;;;6159883;28;81121;-67
2021/08/29 08:41:30;;;;;;;10.60;7.03;;;23.30;59.60;;;;;;6173706;28;82986;-67
2021/08/29 08:45:09;;;;;;;10.82;6.40;;;23.30;59.20;;;;;;6118815;28;80634;-68
2021/08/29 08:48:28;;;;;;;14.52;7.75;;;23.30;59.00;;;;;;6116021;28;80514;-68
2021/08/29 08:51:58;;;;;;;17.23;9.02;;;23.30;59.10;;;;;;6137640;28;85105;-68
2021/08/29 08:55:17;;;;;;;30.42;16.88;;;23.30;60.60;;;;;;6155155;28;80602;-67
2021/08/29 08:58:39;;;;;;;34.78;17.13;;;23.30;62.30;;;;;;6148695;28;83427;-67
2021/08/29 09:01:59;;;;;;;26.98;17.88;;;23.30;64.50;;;;;;6150214;28;82820;-67
2021/08/29 09:05:16;;;;;;;37.60;19.13;;;23.40;66.40;;;;;;6155697;28;84256;-66
2021/08/29 09:08:17;;;;;;;39.75;18.17;;;23.40;68.50;;;;;;6150429;28;87045;-67
2021/08/29 09:11:17;;;;;;;32.78;18.38;;;23.40;69.80;;;;;;6149699;28;85872;-67
2021/08/29 09:14:18;;;;;;;28.95;16.05;;;23.40;68.70;;;;;;6149182;28;84251;-68
2021/08/29 09:17:19;;;;;;;29.10;14.70;;;23.40;67.40;;;;;;6154542;28;85168;-67
2021/08/29 09:20:20;;;;;;;30.35;14.95;;;23.40;67.00;;;;;;6154704;28;86364;-67
2021/08/29 09:23:23;;;;;;;27.77;13.88;;;23.40;66.40;;;;;;6155090;28;85280;-66
2021/08/29 09:26:24;;;;;;;24.52;13.73;;;23.40;65.80;;;;;;6151100;28;83764;-66
2021/08/29 09:29:38;;;;;;;23.80;13.55;;;23.50;65.20;;;;;;6153512;28;82900;-66
2021/08/29 09:32:39;;;;;;;24.00;11.65;;;23.50;64.90;;;;;;6156241;28;85883;-66
2021/08/29 09:35:43;;;;;;;20.63;10.77;;;23.50;64.60;;;;;;6168977;28;85805;-66
2021/08/29 09:39:03;;;;;;;17.83;10.07;;;23.50;64.50;;;;;;6152724;28;83122;-65
2021/08/29 09:42:15;;;;;;;22.88;10.82;;;23.50;64.30;;;;;;6168485;28;83303;-66
2021/08/29 09:45:16;;;;;;;20.65;10.30;;;23.50;64.50;;;;;;6159258;28;82786;-65
2021/08/29 09:48:50;;;;;;;19.75;9.77;;;23.50;64.20;;;;;;6137533;28;83117;-67
2021/08/29 09:51:57;;;;;;;16.52;9.05;;;23.40;64.70;;;;;;6155492;28;90189;-68
2021/08/29 09:55:18;;;;;;;22.42;9.70;;;23.40;64.30;;;;;;6170060;28;81462;-64
2021/08/29 09:58:57;;;;;;;17.73;8.30;;;23.40;64.50;;;;;;6101028;28;82131;-65
2021/08/29 10:02:12;;;;;;;17.65;7.85;;;23.40;63.80;;;;;;6106552;28;83099;-67
2021/08/29 10:05:20;;;;;;;14.65;8.20;;;23.50;63.30;;;;;;6153804;28;83293;-66
2021/08/29 10:08:23;;;;;;;14.68;7.55;;;23.50;63.30;;;;;;6166488;28;83361;-66
2021/08/29 10:11:35;;;;;;;16.75;8.07;;;23.50;64.20;;;;;;6162291;28;82401;-66
2021/08/29 10:14:36;;;;;;;12.73;6.90;;;23.50;63.80;;;;;;6154229;28;81578;-68
2021/08/29 10:17:55;;;;;;;13.60;7.25;;;23.50;63.30;;;;;;6157343;28;80498;-66
2021/08/29 10:21:14;;;;;;;13.25;7.25;;;23.50;63.60;;;;;;6163880;28;80424;-68
2021/08/29 10:24:16;;;;;;;11.98;6.35;;;23.50;63.50;;;;;;6143045;28;83239;-66
2021/08/29 10:27:17;;;;;;;10.48;6.25;;;23.50;63.30;;;;;;6164004;28;80968;-68
2021/08/29 10:30:46;;;;;;;12.30;6.80;;;23.50;62.70;;;;;;6172720;28;83039;-68
2021/08/29 10:34:12;;;;;;;11.30;6.15;;;23.50;62.50;;;;;;6144619;28;86205;-70
2021/08/29 10:37:17;;;;;;;13.38;6.13;;;23.50;62.50;;;;;;6164360;28;82157;-65
2021/08/29 10:40:20;;;;;;;8.52;5.38;;;23.50;61.90;;;;;;6167509;28;81005;-64
2021/08/29 10:43:31;;;;;;;12.82;5.28;;;23.50;60.90;;;;;;6166162;28;83303;-66
2021/08/29 10:47:07;;;;;;;10.80;5.47;;;23.50;60.30;;;;;;6167134;28;81118;-67
2021/08/29 10:50:43;;;;;;;10.32;4.90;;;23.50;60.30;;;;;;6170108;28;81404;-66
2021/08/29 10:53:43;;;;;;;11.00;4.88;;;23.50;60.30;;;;;;6166912;28;81438;-65
2021/08/29 10:56:47;;;;;;;7.40;4.85;;;23.50;60.20;;;;;;6163543;28;82811;-65
2021/08/29 10:59:53;;;;;;;11.75;5.25;;;23.40;59.20;;;;;;6155482;28;83110;-65
2021/08/29 11:02:53;;;;;;;6.50;4.55;;;23.40;59.50;;;;;;6171269;28;83012;-65
2021/08/29 11:06:23;;;;;;;10.05;4.82;;;23.40;59.10;;;;;;6102261;28;80606;-64
2021/08/29 11:09:24;;;;;;;8.93;4.95;;;23.40;59.60;;;;;;6152272;28;81829;-67
2021/08/29 11:12:26;;;;;;;6.50;4.32;;;23.40;59.30;;;;;;6159672;28;83632;-66
2021/08/29 11:15:31;;;;;;;10.55;5.00;;;23.40;59.20;;;;;;6161763;28;82788;-65
2021/08/29 11:18:43;;;;;;;8.02;5.13;;;23.40;59.00;;;;;;6162513;28;81672;-66
2021/08/29 11:21:43;;;;;;;8.75;5.00;;;23.40;58.90;;;;;;6169601;28;80603;-64
2021/08/29 11:25:03;;;;;;;8.85;4.82;;;23.40;58.50;;;;;;6157036;28;84559;-65
2021/08/29 11:28:09;;;;;;;6.70;4.10;;;23.40;58.20;;;;;;6159697;28;82801;-65
2021/08/29 11:31:35;;;;;;;7.88;4.25;;;23.40;58.10;;;;;;6161241;28;80529;-64
2021/08/29 11:34:35;;;;;;;6.95;4.40;;;23.40;57.80;;;;;;6149962;28;80584;-66
2021/08/29 11:37:36;;;;;;;5.95;4.32;;;23.40;57.90;;;;;;6150380;28;83631;-65
2021/08/29 11:40:53;;;;;;;6.65;4.40;;;23.40;58.00;;;;;;6149536;28;81804;-66
2021/08/29 11:43:54;;;;;;;5.95;4.15;;;23.40;57.80;;;;;;6155970;28;82993;-65
2021/08/29 11:47:03;;;;;;;5.85;4.03;;;23.40;57.70;;;;;;6161326;28;83063;-65
2021/08/29 11:50:26;;;;;;;6.78;4.70;;;23.40;57.80;;;;;;6136219;28;80345;-66
2021/08/29 11:53:56;;;;;;;5.63;3.90;;;23.40;57.70;;;;;;6151559;28;81604;-64
2021/08/29 11:56:57;;;;;;;7.07;4.72;;;23.40;57.60;;;;;;6178252;28;82382;-65
2021/08/29 11:59:58;;;;;;;5.60;4.25;;;23.40;57.80;;;;;;6158072;28;82939;-64
2021/08/29 12:03:18;;;;;;;7.15;4.30;;;23.40;57.70;;;;;;6166232;28;80595;-65
2021/08/29 12:06:18;;;;;;;7.35;4.38;;;23.40;57.50;;;;;;6144105;28;83634;-65
2021/08/29 12:09:39;;;;;;;5.25;4.13;;;23.40;57.50;;;;;;6161587;28;80516;-65
2021/08/29 12:13:06;;;;;;;7.03;4.20;;;23.40;57.50;;;;;;6169530;28;85487;-66
2021/08/29 12:16:25;;;;;;;6.68;4.30;;;23.40;57.50;;;;;;6159943;28;80756;-65
2021/08/29 12:19:28;;;;;;;7.90;4.05;;;23.40;57.40;;;;;;6156004;28;83109;-65
2021/08/29 12:22:52;;;;;;;6.28;4.30;;;23.40;57.70;;;;;;6148661;28;81763;-64
2021/08/29 12:25:53;;;;;;;4.60;4.03;;;23.40;57.30;;;;;;6171272;28;82334;-65
2021/08/29 12:28:54;;;;;;;5.13;4.05;;;23.40;57.30;;;;;;6157528;28;82924;-65
2021/08/29 12:31:54;;;;;;;5.82;4.10;;;23.40;57.30;;;;;;6161925;28;82866;-64
2021/08/29 12:34:55;;;;;;;4.72;4.00;;;23.40;57.20;;;;;;6144975;28;82169;-64
2021/08/29 12:37:56;;;;;;;8.40;4.75;;;23.40;57.40;;;;;;6155707;28;82128;-64
2021/08/29 12:40:57;;;;;;;5.88;4.07;;;23.40;57.20;;;;;;6165440;28;83209;-64
2021/08/29 12:43:57;;;;;;;5.53;4.38;;;23.40;57.20;;;;;;6156521;28;81403;-64
2021/08/29 12:46:58;;;;;;;5.50;3.60;;;23.40;56.90;;;;;;6186762;28;83320;-64
2021/08/29 12:49:58;;;;;;;4.57;3.78;;;23.40;57.20;;;;;;6150591;28;80588;-64
2021/08/29 12:52:59;;;;;;;5.15;3.80;;;23.40;56.80;;;;;;6158571;28;81377;-65
2021/08/29 12:55:59;;;;;;;6.97;3.72;;;23.40;56.60;;;;;;6171795;28;81413;-65
2021/08/29 12:59:00;;;;;;;4.95;4.32;;;23.40;56.90;;;;;;6171391;28;81936;-65
2021/08/29 13:02:00;;;;;;;6.85;4.00;;;23.40;56.90;;;;;;6159311;28;80901;-64
2021/08/29 13:05:01;;;;;;;6.78;4.53;;;23.50;57.00;;;;;;6169900;28;81179;-64
2021/08/29 13:08:01;;;;;;;5.57;4.18;;;23.40;56.90;;;;;;6168259;28;83178;-65
2021/08/29 13:11:02;;;;;;;6.88;4.95;;;23.40;57.20;;;;;;6158673;28;80875;-65
2021/08/29 13:14:02;;;;;;;9.38;4.10;;;23.50;57.40;;;;;;6156059;28;80752;-64
2021/08/29 13:17:03;;;;;;;5.20;3.90;;;23.40;57.70;;;;;;6159140;28;80741;-64
2021/08/29 13:20:03;;;;;;;7.57;4.50;;;23.40;57.60;;;;;;6164684;28;80497;-65
2021/08/29 13:23:04;;;;;;;5.30;4.25;;;23.50;58.00;;;;;;6161206;28;83332;-64
2021/08/29 13:26:04;;;;;;;7.72;4.00;;;23.50;57.80;;;;;;6153282;28;80420;-64
2021/08/29 13:29:05;;;;;;;6.57;3.83;;;23.50;57.90;;;;;;6172962;28;80395;-63
2021/08/29 13:32:05;;;;;;;5.32;3.83;;;23.50;57.80;;;;;;6161569;28;80540;-63
2021/08/29 13:35:06;;;;;;;18.05;4.75;;;23.50;57.80;;;;;;6173657;28;80916;-63
2021/08/29 13:38:06;;;;;;;8.98;3.95;;;23.50;57.80;;;;;;6155968;28;82291;-67
2021/08/29 13:41:07;;;;;;;5.43;3.50;;;23.50;57.90;;;;;;6175332;28;81058;-67
2021/08/29 13:44:07;;;;;;;5.78;3.70;;;23.50;58.00;;;;;;6158467;28;81129;-66
2021/08/29 13:47:08;;;;;;;5.15;3.63;;;23.50;57.90;;;;;;6156001;28;80627;-67
2021/08/29 13:50:08;;;;;;;4.07;3.10;;;23.50;58.00;;;;;;6155824;28;80353;-67
2021/08/29 13:53:11;;;;;;;5.15;3.53;;;23.50;57.90;;;;;;6159427;28;80551;-64
2021/08/29 13:56:11;;;;;;;6.80;3.58;;;23.50;58.00;;;;;;6171133;28;80730;-67
2021/08/29 13:59:12;;;;;;;11.05;3.42;;;23.50;58.00;;;;;;6164342;28;81771;-66
2021/08/29 14:02:12;;;;;;;4.60;3.30;;;23.50;58.10;;;;;;6144261;28;81407;-66
2021/08/29 14:05:14;;;;;;;9.45;3.53;;;23.50;57.80;;;;;;6170664;28;81524;-66
2021/08/29 14:08:14;;;;;;;4.00;3.00;;;23.50;58.10;;;;;;6163793;28;80584;-68
2021/08/29 14:11:15;;;;;;;3.47;3.17;;;23.50;58.10;;;;;;6171593;28;80758;-69
2021/08/29 14:14:18;;;;;;;8.27;3.65;;;23.50;58.10;;;;;;6152914;28;81051;-68
2021/08/29 14:17:18;;;;;;;5.03;2.97;;;23.50;58.40;;;;;;6167853;28;80431;-68
2021/08/29 14:20:19;;;;;;;5.88;3.67;;;23.50;58.60;;;;;;6158733;28;80765;-67
2021/08/29 14:23:19;;;;;;;3.83;3.40;;;23.50;58.60;;;;;;6160345;28;80910;-69
2021/08/29 14:26:20;;;;;;;6.32;3.00;;;23.60;58.70;;;;;;6157933;28;81054;-68
2021/08/29 14:29:20;;;;;;;6.22;3.25;;;23.60;58.70;;;;;;6161674;28;82437;-69
2021/08/29 14:32:21;;;;;;;5.35;3.60;;;23.60;58.60;;;;;;6156004;28;80415;-69
2021/08/29 14:35:21;;;;;;;4.50;3.10;;;23.60;58.50;;;;;;6159836;28;80859;-69
2021/08/29 14:38:22;;;;;;;7.43;3.60;;;23.60;58.40;;;;;;6154433;28;81888;-69
2021/08/29 14:41:23;;;;;;;4.40;3.40;;;23.60;58.50;;;;;;6166390;28;82339;-69
2021/08/29 14:44:23;;;;;;;4.30;3.17;;;23.60;58.50;;;;;;6156454;28;82701;-68
2021/08/29 14:47:24;;;;;;;4.75;3.20;;;23.60;58.50;;;;;;6151565;28;80341;-69
2021/08/29 14:50:25;;;;;;;3.30;2.88;;;23.60;58.50;;;;;;6157180;28;81377;-68
2021/08/29 14:53:33;;;;;;;4.95;2.97;;;23.60;58.40;;;;;;6155406;28;82678;-69
2021/08/29 14:56:34;;;;;;;5.32;3.20;;;23.50;58.60;;;;;;6167457;28;82979;-67
2021/08/29 14:59:35;;;;;;;4.40;3.15;;;23.50;58.70;;;;;;6173200;28;80211;-67
2021/08/29 15:02:40;;;;;;;4.82;3.72;;;23.50;59.00;;;;;;6163560;28;81582;-68
2021/08/29 15:05:40;;;;;;;6.93;3.25;;;23.50;58.80;;;;;;6172626;28;82187;-69
2021/08/29 15:08:42;;;;;;;4.78;2.92;;;23.50;58.90;;;;;;6170817;28;80285;-70
2021/08/29 15:11:43;;;;;;;3.55;2.90;;;23.50;58.70;;;;;;6178616;28;80599;-68
2021/08/29 15:14:43;;;;;;;3.85;3.03;;;23.50;58.70;;;;;;6175170;28;81586;-69
2021/08/29 15:17:44;;;;;;;3.38;2.90;;;23.50;58.80;;;;;;6167538;28;80354;-68
2021/08/29 15:20:44;;;;;;;4.45;3.20;;;23.50;58.60;;;;;;6162196;28;80703;-69
2021/08/29 15:23:46;;;;;;;3.70;3.20;;;23.50;58.70;;;;;;6167436;28;80406;-69
2021/08/29 15:26:46;;;;;;;3.85;3.03;;;23.40;58.60;;;;;;6173418;28;80969;-69
2021/08/29 15:29:47;;;;;;;4.70;3.38;;;23.40;58.80;;;;;;6176681;28;80992;-70
2021/08/29 15:32:48;;;;;;;6.38;3.20;;;23.40;58.80;;;;;;6171962;28;80616;-68
2021/08/29 15:35:48;;;;;;;4.65;3.03;;;23.40;58.70;;;;;;6170581;28;83577;-68
2021/08/29 15:38:49;;;;;;;5.50;2.85;;;23.40;58.60;;;;;;6170972;28;81617;-69
2021/08/29 15:41:55;;;;;;;4.75;2.92;;;23.40;58.80;;;;;;6168572;28;83038;-68
2021/08/29 15:44:55;;;;;;;4.10;3.13;;;23.40;58.90;;;;;;6171509;28;80418;-69
2021/08/29 15:47:56;;;;;;;3.42;3.10;;;23.50;59.20;;;;;;6157038;28;82055;-67
2021/08/29 15:50:57;;;;;;;6.57;3.08;;;23.50;59.50;;;;;;6158938;28;80360;-68
2021/08/29 15:53:57;;;;;;;5.20;3.38;;;23.40;59.60;;;;;;6157101;28;81599;-68
2021/08/29 15:56:58;;;;;;;6.13;2.97;;;23.40;59.60;;;;;;6172108;28;80859;-67
2021/08/29 15:59:58;;;;;;;6.28;3.25;;;23.50;59.50;;;;;;6173327;28;80735;-68
2021/08/29 16:02:59;;;;;;;11.80;2.97;;;23.50;59.40;;;;;;6172412;28;80327;-68